Norwegian Star — C6FR3 — position and weather

sailwx.info

Track history (hours):
 
Tides and Currents Weather Stations Pressure Air Temp Water Temp Dewpoint Dewpoint Depression Visibility Wind Speed Wind Dir Waves Ship Positions

Norwegian Star

Operator: Norwegian Cruise Line

Last reported at 2017-Apr-27 20:29 UTC. Time now 2017-Apr-28 02:25 UTC.
Position N 36°25' E 023°12'.

Type: Passenger vessel. MMSI: 311082000.

Date/timePositionNaut miles runAvg speedWind from/ knotsBaromVisibWave heightAir tempDewpointWater temp
2017-Apr-27 20:29N 36°25' E 023°12'1517.7
2017-Apr-27 19:38N 36°38' E 023°23'317.7
2017-Apr-27 19:27N 36°41' E 023°25'817.6
2017-Apr-27 19:01N 36°47' E 023°30'917.5
2017-Apr-27 18:31N 36°55' E 023°34'917.8
2017-Apr-27 18:01N 37°04' E 023°36'1017.8
2017-Apr-27 17:25N 37°14' E 023°39'717.7
2017-Apr-27 17:00N 37°21' E 023°41'917.5
2017-Apr-27 16:30N 37°30' E 023°42'917.4
2017-Apr-27 16:00N 37°39' E 023°43'917.4
2017-Apr-27 15:30N 37°47' E 023°38'816.0
2017-Apr-27 15:00N 37°55' E 023°36'2 1.6
2017-Apr-27 14:00N 37°56' E 023°37'0 0.0
2017-Apr-27 13:30N 37°56' E 023°37'0 0.0
2017-Apr-27 13:00N 37°56' E 023°37'0 0.0
2017-Apr-27 12:30N 37°56' E 023°37'0 0.0
2017-Apr-27 12:00N 37°56' E 023°37'0 0.0
2017-Apr-27 11:30N 37°56' E 023°37'0 0.0
2017-Apr-27 11:00N 37°56' E 023°37'0 0.0
2017-Apr-27 10:30N 37°56' E 023°37'0 0.0
2017-Apr-27 10:00N 37°56' E 023°37'0 0.0
2017-Apr-27 09:30N 37°56' E 023°37'0 0.0
2017-Apr-27 09:00N 37°56' E 023°37'0 0.0
2017-Apr-27 08:31N 37°56' E 023°37'0 0.0
2017-Apr-27 07:58N 37°56' E 023°37'0 0.0
2017-Apr-27 07:28N 37°56' E 023°37'0 0.0
2017-Apr-27 06:58N 37°56' E 023°37'0 0.0
2017-Apr-27 06:28N 37°56' E 023°37'0 0.0
2017-Apr-27 06:00N 37°56' E 023°37'0 0.0
2017-Apr-27 05:28N 37°56' E 023°37'0 0.1
2017-Apr-27 05:00N 37°56' E 023°37'1 2.5
2017-Apr-27 04:30N 37°55' E 023°37'0 0.3
2017-Apr-27 04:00N 37°55' E 023°37'815.5
2017-Apr-27 03:31N 37°48' E 023°41'1019.4
2017-Apr-27 03:00N 37°39' E 023°47'918.8
2017-Apr-27 02:31N 37°30' E 023°43'1019.3
2017-Apr-27 02:01N 37°21' E 023°41'1019.4
2017-Apr-27 01:30N 37°11' E 023°39'1019.1
2017-Apr-27 01:01N 37°02' E 023°37'1019.3
2017-Apr-27 00:31N 36°52' E 023°35'1020.2
2017-Apr-27 00:01N 36°44' E 023°28'1019.3
2017-Apr-26 23:31N 36°35' E 023°22'1019.2
2017-Apr-26 23:01N 36°27' E 023°17'3181.7
2017-Apr-26 23:00N 36°24' E 023°18'7318.2 320 / 101019.010.8 16.0 18.0
2017-Apr-26 18:58N 36°27' E 021°47'919.3
2017-Apr-26 18:30N 36°31' E 021°37'3915.4
2017-Apr-26 16:00N 37°06' E 021°18'33 3.3 130 / 61018.027.0 20.0
2017-Apr-26 06:00N 37°36' E 021°00'5217.4 060 / 151018.910.8 15.7 17.0
2017-Apr-26 03:00N 38°06' E 020°06'8721.6 1019.010.8 16.0
2017-Apr-25 23:00N 39°24' E 019°18'16520.6 140 / 211019.010.8 16.0 17.0
2017-Apr-25 15:00N 42°06' E 018°36'21 1.4 1019.027.0 18.0
2017-Apr-25 00:00N 42°18' E 018°12'119 5.9 140 / 201020.010.8 15.4 17.0
2017-Apr-24 04:00N 42°48' E 015°36'5819.2 110 / 151018.510.8 14.0
2017-Apr-24 01:00N 43°30' E 014°42'6220.6 140 / 181021.010.8 14.7 15.0
2017-Apr-23 22:00N 44°18' E 013°48'1017.1 100 / 161017.0 5.4 15.0
2017-Apr-23 21:25N 44°27' E 013°42'819.5
2017-Apr-23 21:00N 44°33' E 013°35'1019.4
2017-Apr-23 20:30N 44°42' E 013°28'1019.5
2017-Apr-23 20:00N 44°50' E 013°20'1019.4
2017-Apr-23 19:30N 44°57' E 013°12'1019.4
2017-Apr-23 19:00N 45°04' E 013°02'1019.8
2017-Apr-23 18:30N 45°11' E 012°52'1020.0
2017-Apr-23 18:00N 45°17' E 012°41'918.2
2017-Apr-23 17:30N 45°23' E 012°31'611.4
2017-Apr-23 17:00N 45°26' E 012°24'3 5.8
2017-Apr-23 16:30N 45°26' E 012°20'1 1.9
2017-Apr-23 15:55N 45°26' E 012°19'0 0.0
2017-Apr-23 15:25N 45°26' E 012°19'0 0.0
2017-Apr-23 14:49N 45°26' E 012°19'2 2.7
2017-Apr-23 14:00N 45°24' E 012°18'229.9
2017-Apr-23 13:55N 45°26' E 012°19'0 0.0
2017-Apr-23 13:19N 45°26' E 012°19'0 0.0
2017-Apr-23 12:55N 45°26' E 012°19'0 0.0
2017-Apr-23 12:25N 45°26' E 012°19'0 0.0
2017-Apr-23 11:55N 45°26' E 012°19'0 0.0
2017-Apr-23 11:25N 45°26' E 012°19'0 0.0
2017-Apr-23 10:55N 45°26' E 012°19'0 0.0
2017-Apr-23 08:43N 45°26' E 012°19'0 0.0
2017-Apr-23 08:25N 45°26' E 012°19'0 0.0
2017-Apr-23 07:55N 45°26' E 012°19'0 0.0
2017-Apr-23 07:25N 45°26' E 012°19'0 0.0
2017-Apr-23 06:55N 45°26' E 012°19'0 0.0
2017-Apr-23 06:28N 45°26' E 012°19'0 0.0
2017-Apr-23 05:55N 45°26' E 012°19'0 0.0
2017-Apr-23 05:28N 45°26' E 012°19'0 0.0
2017-Apr-23 05:00N 45°26' E 012°19'0 0.8
2017-Apr-23 04:30N 45°26' E 012°19'3 5.4
2017-Apr-23 04:00N 45°26' E 012°23'5 9.1
2017-Apr-23 03:31N 45°24' E 012°29'917.7
2017-Apr-23 03:00N 45°20' E 012°40'1019.8
2017-Apr-23 02:31N 45°14' E 012°51'1020.2
2017-Apr-23 02:00N 45°07' E 013°01'1019.7
2017-Apr-23 01:30N 45°01' E 013°12'1019.7
2017-Apr-23 01:01N 44°54' E 013°23'1019.7
2017-Apr-23 00:30N 44°46' E 013°30'1019.8
2017-Apr-23 00:01N 44°38' E 013°38'1020.0
2017-Apr-22 23:31N 44°30' E 013°46'1020.0
2017-Apr-22 23:01N 44°21' E 013°53'1020.0
2017-Apr-22 22:30N 44°13' E 014°01'1020.0
2017-Apr-22 22:01N 44°05' E 014°09'122272092.6
2017-Apr-22 22:00N 44°06' W 014°12'12292533.2 180 / 141015.0 5.4 16.0
2017-Apr-22 21:30N 43°56' E 014°16'1020.0
2017-Apr-22 21:00N 43°48' E 014°24'1919.9
2017-Apr-22 20:02N 43°32' E 014°39'120.3
2017-Apr-22 20:00N 43°32' E 014°40'7719.1
2017-Apr-22 16:00N 42°42' E 016°00'113 7.5 270 / 161019.027.0 13.0
2017-Apr-22 01:00N 41°54' E 018°18'14416.0 320 / 61024.010.8 10.3 13.0
2017-Apr-21 16:00N 39°36' E 019°12'6616.5 350 / 351020.010.8 12.0
2017-Apr-21 12:00N 38°36' E 019°48'1879939.5 320 / 251020.010.8 13.2 15.0
2017-Apr-21 10:00N 38°00' W 020°06'1976329.4 350 / 271016.0 5.4 17.0
2017-Apr-21 04:00N 36°42' E 021°18'7715.3 1016.010.8 14.0
2017-Apr-20 23:00N 36°06' E 022°42'12215.2 320 / 341016.010.8 14.8 15.0
2017-Apr-20 14:58N 37°14' E 024°48'1616.3
2017-Apr-20 14:01N 37°23' E 025°04'6357.1
2017-Apr-20 14:00N 37°18' E 025°00'1428.6 110 / 131011.5 5.4 18.0
2017-Apr-20 13:31N 37°28' E 025°12'510.9
2017-Apr-20 13:00N 37°28' E 025°19'0 0.2
2017-Apr-20 12:28N 37°28' E 025°19'0 0.0
2017-Apr-20 11:58N 37°28' E 025°19'0 0.0
2017-Apr-20 11:28N 37°28' E 025°19'0 0.0
2017-Apr-20 10:58N 37°28' E 025°19'0 0.0
2017-Apr-20 10:28N 37°28' E 025°19'0 0.0
2017-Apr-20 09:58N 37°28' E 025°19'0 0.0
2017-Apr-20 09:25N 37°28' E 025°19'0 0.0
2017-Apr-20 08:58N 37°28' E 025°19'0 0.0
2017-Apr-20 08:28N 37°28' E 025°19'0 0.0
2017-Apr-20 07:58N 37°28' E 025°19'0 0.0
2017-Apr-20 07:28N 37°28' E 025°19'0 0.0
2017-Apr-20 06:58N 37°28' E 025°19'0 0.0
2017-Apr-20 06:28N 37°28' E 025°19'0 0.0
2017-Apr-20 05:55N 37°28' E 025°19'0 0.0
2017-Apr-20 05:28N 37°28' E 025°19'0 0.0
2017-Apr-20 04:58N 37°28' E 025°19'0 0.0
2017-Apr-20 04:30N 37°28' E 025°19'0 0.5
2017-Apr-20 04:00N 37°28' E 025°19'5 9.8
2017-Apr-20 03:30N 37°28' E 025°13'5 9.9
2017-Apr-20 03:00N 37°24' E 025°08'510.5
2017-Apr-20 02:30N 37°19' E 025°06'510.4
2017-Apr-20 02:00N 37°15' E 025°03'510.4
2017-Apr-20 01:30N 37°10' E 025°00'24 9.5
2017-Apr-19 23:00N 36°48' E 024°48'38 3.8 140 / 221014.010.8 18.4 18.0
2017-Apr-19 13:00N 36°24' E 025°24'14613.2 230 / 91016.110.8 17.4 17.5
2017-Apr-19 02:00N 36°12' E 022°24'6822.7 140 / 151014.0 16.0
2017-Apr-18 23:00N 36°48' E 021°12'12317.6 140 / 211016.010.8 17.0 17.0
2017-Apr-18 16:00N 38°42' E 020°12'84 7.0 100 / 161013.510.8 18.0
2017-Apr-18 04:00N 40°00' E 019°30'7915.7 020 / 101012.010.8 15.0
2017-Apr-17 23:00N 41°12' E 018°48'   290 / 131014.010.8 14.9 15.0
Track history (hours):
 
Tides and Currents Weather Stations Pressure Air Temp Water Temp Dewpoint Dewpoint Depression Visibility Wind Speed Wind Dir Waves Ship Positions

Norwegian Star

Operator: Norwegian Cruise Line

Last reported at 2017-Apr-27 20:29 UTC. Time now 2017-Apr-28 02:25 UTC.
Position N 36°25' E 023°12'.

Type: Passenger vessel. MMSI: 311082000.

Date/timePositionNaut miles runAvg speedWind from/ knotsBaromVisibWave heightAir tempDewpointWater temp
2017-Apr-27 20:29N 36°25' E 023°12'1517.7
2017-Apr-27 19:38N 36°38' E 023°23'317.7
2017-Apr-27 19:27N 36°41' E 023°25'817.6
2017-Apr-27 19:01N 36°47' E 023°30'917.5
2017-Apr-27 18:31N 36°55' E 023°34'917.8
2017-Apr-27 18:01N 37°04' E 023°36'1017.8
2017-Apr-27 17:25N 37°14' E 023°39'717.7
2017-Apr-27 17:00N 37°21' E 023°41'917.5
2017-Apr-27 16:30N 37°30' E 023°42'917.4
2017-Apr-27 16:00N 37°39' E 023°43'917.4
2017-Apr-27 15:30N 37°47' E 023°38'816.0
2017-Apr-27 15:00N 37°55' E 023°36'2 1.6
2017-Apr-27 14:00N 37°56' E 023°37'0 0.0
2017-Apr-27 13:30N 37°56' E 023°37'0 0.0
2017-Apr-27 13:00N 37°56' E 023°37'0 0.0
2017-Apr-27 12:30N 37°56' E 023°37'0 0.0
2017-Apr-27 12:00N 37°56' E 023°37'0 0.0
2017-Apr-27 11:30N 37°56' E 023°37'0 0.0
2017-Apr-27 11:00N 37°56' E 023°37'0 0.0
2017-Apr-27 10:30N 37°56' E 023°37'0 0.0
2017-Apr-27 10:00N 37°56' E 023°37'0 0.0
2017-Apr-27 09:30N 37°56' E 023°37'0 0.0
2017-Apr-27 09:00N 37°56' E 023°37'0 0.0
2017-Apr-27 08:31N 37°56' E 023°37'0 0.0
2017-Apr-27 07:58N 37°56' E 023°37'0 0.0
2017-Apr-27 07:28N 37°56' E 023°37'0 0.0
2017-Apr-27 06:58N 37°56' E 023°37'0 0.0
2017-Apr-27 06:28N 37°56' E 023°37'0 0.0
2017-Apr-27 06:00N 37°56' E 023°37'0 0.0
2017-Apr-27 05:28N 37°56' E 023°37'0 0.1
2017-Apr-27 05:00N 37°56' E 023°37'1 2.5
2017-Apr-27 04:30N 37°55' E 023°37'0 0.3
2017-Apr-27 04:00N 37°55' E 023°37'815.5
2017-Apr-27 03:31N 37°48' E 023°41'1019.4
2017-Apr-27 03:00N 37°39' E 023°47'918.8
2017-Apr-27 02:31N 37°30' E 023°43'1019.3
2017-Apr-27 02:01N 37°21' E 023°41'1019.4
2017-Apr-27 01:30N 37°11' E 023°39'1019.1
2017-Apr-27 01:01N 37°02' E 023°37'1019.3
2017-Apr-27 00:31N 36°52' E 023°35'1020.2
2017-Apr-27 00:01N 36°44' E 023°28'1019.3
2017-Apr-26 23:31N 36°35' E 023°22'1019.2
2017-Apr-26 23:01N 36°27' E 023°17'3181.7
2017-Apr-26 23:00N 36°24' E 023°18'7318.2 320 / 101019.010.8 16.0 18.0
2017-Apr-26 18:58N 36°27' E 021°47'919.3
2017-Apr-26 18:30N 36°31' E 021°37'3915.4
2017-Apr-26 16:00N 37°06' E 021°18'33 3.3 130 / 61018.027.0 20.0
2017-Apr-26 06:00N 37°36' E 021°00'5217.4 060 / 151018.910.8 15.7 17.0
2017-Apr-26 03:00N 38°06' E 020°06'8721.6 1019.010.8 16.0
2017-Apr-25 23:00N 39°24' E 019°18'16520.6 140 / 211019.010.8 16.0 17.0
2017-Apr-25 15:00N 42°06' E 018°36'21 1.4 1019.027.0 18.0
2017-Apr-25 00:00N 42°18' E 018°12'119 5.9 140 / 201020.010.8 15.4 17.0
2017-Apr-24 04:00N 42°48' E 015°36'5819.2 110 / 151018.510.8 14.0
2017-Apr-24 01:00N 43°30' E 014°42'6220.6 140 / 181021.010.8 14.7 15.0
2017-Apr-23 22:00N 44°18' E 013°48'1017.1 100 / 161017.0 5.4 15.0
2017-Apr-23 21:25N 44°27' E 013°42'819.5
2017-Apr-23 21:00N 44°33' E 013°35'1019.4
2017-Apr-23 20:30N 44°42' E 013°28'1019.5
2017-Apr-23 20:00N 44°50' E 013°20'1019.4
2017-Apr-23 19:30N 44°57' E 013°12'1019.4
2017-Apr-23 19:00N 45°04' E 013°02'1019.8
2017-Apr-23 18:30N 45°11' E 012°52'1020.0
2017-Apr-23 18:00N 45°17' E 012°41'918.2
2017-Apr-23 17:30N 45°23' E 012°31'611.4
2017-Apr-23 17:00N 45°26' E 012°24'3 5.8
2017-Apr-23 16:30N 45°26' E 012°20'1 1.9
2017-Apr-23 15:55N 45°26' E 012°19'0 0.0
2017-Apr-23 15:25N 45°26' E 012°19'0 0.0
2017-Apr-23 14:49N 45°26' E 012°19'2 2.7
2017-Apr-23 14:00N 45°24' E 012°18'229.9
2017-Apr-23 13:55N 45°26' E 012°19'0 0.0
2017-Apr-23 13:19N 45°26' E 012°19'0 0.0
2017-Apr-23 12:55N 45°26' E 012°19'0 0.0
2017-Apr-23 12:25N 45°26' E 012°19'0 0.0
2017-Apr-23 11:55N 45°26' E 012°19'0 0.0
2017-Apr-23 11:25N 45°26' E 012°19'0 0.0
2017-Apr-23 10:55N 45°26' E 012°19'0 0.0
2017-Apr-23 08:43N 45°26' E 012°19'0 0.0
2017-Apr-23 08:25N 45°26' E 012°19'0 0.0
2017-Apr-23 07:55N 45°26' E 012°19'0 0.0
2017-Apr-23 07:25N 45°26' E 012°19'0 0.0
2017-Apr-23 06:55N 45°26' E 012°19'0 0.0
2017-Apr-23 06:28N 45°26' E 012°19'0 0.0
2017-Apr-23 05:55N 45°26' E 012°19'0 0.0
2017-Apr-23 05:28N 45°26' E 012°19'0 0.0
2017-Apr-23 05:00N 45°26' E 012°19'0 0.8
2017-Apr-23 04:30N 45°26' E 012°19'3 5.4
2017-Apr-23 04:00N 45°26' E 012°23'5 9.1
2017-Apr-23 03:31N 45°24' E 012°29'917.7
2017-Apr-23 03:00N 45°20' E 012°40'1019.8
2017-Apr-23 02:31N 45°14' E 012°51'1020.2
2017-Apr-23 02:00N 45°07' E 013°01'1019.7
2017-Apr-23 01:30N 45°01' E 013°12'1019.7
2017-Apr-23 01:01N 44°54' E 013°23'1019.7
2017-Apr-23 00:30N 44°46' E 013°30'1019.8
2017-Apr-23 00:01N 44°38' E 013°38'1020.0
2017-Apr-22 23:31N 44°30' E 013°46'1020.0
2017-Apr-22 23:01N 44°21' E 013°53'1020.0
2017-Apr-22 22:30N 44°13' E 014°01'1020.0
2017-Apr-22 22:01N 44°05' E 014°09'122272092.6
2017-Apr-22 22:00N 44°06' W 014°12'12292533.2 180 / 141015.0 5.4 16.0
2017-Apr-22 21:30N 43°56' E 014°16'1020.0
2017-Apr-22 21:00N 43°48' E 014°24'1919.9
2017-Apr-22 20:02N 43°32' E 014°39'120.3
2017-Apr-22 20:00N 43°32' E 014°40'7719.1
2017-Apr-22 16:00N 42°42' E 016°00'113 7.5 270 / 161019.027.0 13.0
2017-Apr-22 01:00N 41°54' E 018°18'14416.0 320 / 61024.010.8 10.3 13.0
2017-Apr-21 16:00N 39°36' E 019°12'6616.5 350 / 351020.010.8 12.0
2017-Apr-21 12:00N 38°36' E 019°48'1879939.5 320 / 251020.010.8 13.2 15.0
2017-Apr-21 10:00N 38°00' W 020°06'1976329.4 350 / 271016.0 5.4 17.0
2017-Apr-21 04:00N 36°42' E 021°18'7715.3 1016.010.8 14.0
2017-Apr-20 23:00N 36°06' E 022°42'12215.2 320 / 341016.010.8 14.8 15.0
2017-Apr-20 14:58N 37°14' E 024°48'1616.3
2017-Apr-20 14:01N 37°23' E 025°04'6357.1
2017-Apr-20 14:00N 37°18' E 025°00'1428.6 110 / 131011.5 5.4 18.0
2017-Apr-20 13:31N 37°28' E 025°12'510.9
2017-Apr-20 13:00N 37°28' E 025°19'0 0.2
2017-Apr-20 12:28N 37°28' E 025°19'0 0.0
2017-Apr-20 11:58N 37°28' E 025°19'0 0.0
2017-Apr-20 11:28N 37°28' E 025°19'0 0.0
2017-Apr-20 10:58N 37°28' E 025°19'0 0.0
2017-Apr-20 10:28N 37°28' E 025°19'0 0.0
2017-Apr-20 09:58N 37°28' E 025°19'0 0.0
2017-Apr-20 09:25N 37°28' E 025°19'0 0.0
2017-Apr-20 08:58N 37°28' E 025°19'0 0.0
2017-Apr-20 08:28N 37°28' E 025°19'0 0.0
2017-Apr-20 07:58N 37°28' E 025°19'0 0.0
2017-Apr-20 07:28N 37°28' E 025°19'0 0.0
2017-Apr-20 06:58N 37°28' E 025°19'0 0.0
2017-Apr-20 06:28N 37°28' E 025°19'0 0.0
2017-Apr-20 05:55N 37°28' E 025°19'0 0.0
2017-Apr-20 05:28N 37°28' E 025°19'0 0.0
2017-Apr-20 04:58N 37°28' E 025°19'0 0.0
2017-Apr-20 04:30N 37°28' E 025°19'0 0.5
2017-Apr-20 04:00N 37°28' E 025°19'5 9.8
2017-Apr-20 03:30N 37°28' E 025°13'5 9.9
2017-Apr-20 03:00N 37°24' E 025°08'510.5
2017-Apr-20 02:30N 37°19' E 025°06'510.4
2017-Apr-20 02:00N 37°15' E 025°03'510.4
2017-Apr-20 01:30N 37°10' E 025°00'24 9.5
2017-Apr-19 23:00N 36°48' E 024°48'38 3.8 140 / 221014.010.8 18.4 18.0
2017-Apr-19 13:00N 36°24' E 025°24'14613.2 230 / 91016.110.8 17.4 17.5
2017-Apr-19 02:00N 36°12' E 022°24'6822.7 140 / 151014.0 16.0
2017-Apr-18 23:00N 36°48' E 021°12'12317.6 140 / 211016.010.8 17.0 17.0
2017-Apr-18 16:00N 38°42' E 020°12'84 7.0 100 / 161013.510.8 18.0
2017-Apr-18 04:00N 40°00' E 019°30'7915.7 020 / 101012.010.8 15.0
2017-Apr-17 23:00N 41°12' E 018°48'   290 / 131014.010.8 14.9 15.0

Dump ship's entire track history